Santa Ysabel, California
Current Conditions -  °F | °C
As of 2:53 AM on Friday 28 Nov 2014 (Local Time) from KRNM Reporting Station
Clear Clear  
Wind Chill: 42°   Ceiling: Unl
Heat Index: 42°   Visibility: 10mi
Dew Point: 30°   Wind: 0mph
Humidity: 62%   Direction: NA
Pressure: 30.03"   Gusts: NA
Location:  33.11°N, 116.67°W
Report Text: KRNM 281053Z AUTO 00000KT 10SM CLR 06/M01 A3003 RMK AO2 SLP157 T00561011 $
Loading
Personal Weather Stations






























Interactive Weather Map New forecast layout! Learn more

10-Day Weather Forecast

Advertisements
Track Severe Weather on mobile